Time;durP1;ratioP1;P1;durP2;ratioP2;P2;SDS_P1;SDS_P2;PMS_P1;PMS_P2;Temp;Humidity;BMP_temperature;BMP_pressure;BME280_temperature;BME280_humidity;BME280_pressure;Samples;Min_cycle;Max_cycle;Signal;HPM_P1;HPM_P2
2023/01/30 00:01:34;;;;;;;1.17;1.17;;;7.90;99.90;;;;;;5055371;28;20270;-82
2023/01/30 00:04:00;;;;;;;1.30;1.20;;;7.80;99.90;;;;;;5053247;28;21084;-85
2023/01/30 00:06:26;;;;;;;4.13;1.70;;;7.80;99.90;;;;;;5038994;28;20311;-82
2023/01/30 00:08:52;;;;;;;0.43;0.43;;;7.70;99.90;;;;;;5055733;28;20252;-82
2023/01/30 00:11:19;;;;;;;0.60;0.60;;;7.60;99.90;;;;;;5039070;28;20217;-86
2023/01/30 00:13:46;;;;;;;0.50;0.50;;;7.60;99.90;;;;;;5035858;28;20346;-82
2023/01/30 00:16:13;;;;;;;1.33;1.27;;;7.50;99.90;;;;;;5036001;28;20186;-82
2023/01/30 00:18:40;;;;;;;3.60;1.87;;;7.50;99.90;;;;;;5063418;28;20201;-82
2023/01/30 00:21:08;;;;;;;1.20;0.63;;;7.50;99.90;;;;;;5035871;28;20271;-83
2023/01/30 00:23:35;;;;;;;1.43;1.30;;;7.50;99.90;;;;;;5053834;28;20979;-82
2023/01/30 00:26:01;;;;;;;4.53;2.23;;;7.50;99.90;;;;;;5061493;28;20313;-84
2023/01/30 00:28:27;;;;;;;2.03;1.10;;;7.50;99.90;;;;;;5054096;28;20292;-83
2023/01/30 00:30:54;;;;;;;2.73;1.60;;;7.50;99.90;;;;;;5050668;28;20216;-84
2023/01/30 00:33:23;;;;;;;5.10;1.13;;;7.50;99.90;;;;;;5061207;28;20217;-82
2023/01/30 00:35:50;;;;;;;0.77;0.77;;;7.40;99.90;;;;;;5051546;28;21158;-82
2023/01/30 00:38:16;;;;;;;6.13;1.73;;;7.40;99.90;;;;;;5052020;28;20225;-82
2023/01/30 00:40:43;;;;;;;7.30;2.30;;;7.40;99.90;;;;;;5037891;28;20241;-82
2023/01/30 00:48:42;;;;;;;2.87;0.50;;;7.40;99.90;;;;;;5057182;28;20244;-82
2023/01/30 00:51:07;;;;;;;0.40;0.40;;;7.40;99.90;;;;;;5052398;28;20225;-81
2023/01/30 00:53:33;;;;;;;0.20;0.20;;;7.40;99.90;;;;;;5035663;28;20228;-82
2023/01/30 00:55:59;;;;;;;0.70;0.70;;;7.40;99.90;;;;;;5063204;28;20224;-81
2023/01/30 00:58:25;;;;;;;1.83;0.73;;;7.40;99.90;;;;;;5028628;28;20244;-81
2023/01/30 01:00:51;;;;;;;1.67;0.90;;;7.40;99.90;;;;;;5050932;28;20196;-84
2023/01/30 01:03:17;;;;;;;6.53;2.27;;;7.40;99.90;;;;;;5053931;28;20224;-81
2023/01/30 01:05:43;;;;;;;0.77;0.60;;;7.40;99.90;;;;;;5063325;28;20221;-82
2023/01/30 01:08:10;;;;;;;0.63;0.60;;;7.40;99.90;;;;;;5054376;28;20230;-82
2023/01/30 01:10:36;;;;;;;0.60;0.60;;;7.40;99.90;;;;;;5062471;28;20217;-81
2023/01/30 01:13:02;;;;;;;1.77;1.03;;;7.40;99.90;;;;;;5049699;28;20235;-84
2023/01/30 01:15:28;;;;;;;2.30;1.17;;;7.40;99.90;;;;;;5062131;28;20252;-81
2023/01/30 01:17:55;;;;;;;0.50;0.37;;;7.40;99.90;;;;;;5052349;28;20247;-81
2023/01/30 01:20:21;;;;;;;5.70;2.20;;;7.40;99.90;;;;;;5062161;28;20217;-83
2023/01/30 01:22:52;;;;;;;8.70;2.17;;;7.40;99.90;;;;;;5036578;28;20307;-81
2023/01/30 01:25:18;;;;;;;1.10;1.00;;;7.50;99.90;;;;;;5052205;28;20270;-81
2023/01/30 01:27:45;;;;;;;7.67;1.43;;;7.50;99.90;;;;;;5052701;28;20197;-82
2023/01/30 01:30:12;;;;;;;1.63;1.53;;;7.50;99.90;;;;;;5036390;28;20223;-85
2023/01/30 01:32:37;;;;;;;0.50;0.50;;;7.50;99.90;;;;;;5034597;28;20225;-81
2023/01/30 01:35:04;;;;;;;1.50;1.00;;;7.50;99.90;;;;;;5052704;28;20229;-81
2023/01/30 01:37:31;;;;;;;5.83;1.07;;;7.50;99.90;;;;;;5052482;28;21119;-81
2023/01/30 01:42:41;;;;;;;4.00;2.83;;;7.50;99.90;;;;;;5056915;28;20359;-81
2023/01/30 01:45:13;;;;;;;4.43;3.37;;;7.50;99.90;;;;;;5061602;28;20237;-84
2023/01/30 01:47:45;;;;;;;1.40;0.73;;;7.60;99.90;;;;;;5052751;28;20229;-82
2023/01/30 01:50:23;;;;;;;1.43;1.33;;;7.60;99.90;;;;;;5054110;28;20315;-86
2023/01/30 01:52:53;;;;;;;1.93;1.83;;;7.70;99.90;;;;;;5055031;28;20220;-87
2023/01/30 01:55:21;;;;;;;4.17;2.47;;;7.70;99.90;;;;;;5051990;28;20542;-86
2023/01/30 01:57:53;;;;;;;0.77;0.77;;;7.70;99.90;;;;;;5052010;28;20221;-86
2023/01/30 02:00:20;;;;;;;2.30;1.70;;;7.70;99.90;;;;;;5073072;28;20240;-86
2023/01/30 02:02:55;;;;;;;1.30;0.60;;;7.70;99.90;;;;;;5053989;28;20217;-88
2023/01/30 02:05:22;;;;;;;2.40;1.93;;;7.70;99.90;;;;;;5053301;28;20612;-86
2023/01/30 02:08:03;;;;;;;7.37;2.50;;;7.70;99.90;;;;;;5053881;28;20264;-87
2023/01/30 02:10:59;;;;;;;2.87;1.47;;;7.70;99.90;;;;;;5071145;28;20215;-89
2023/01/30 02:13:26;;;;;;;1.60;0.80;;;7.70;99.90;;;;;;5025273;28;20212;-88
2023/01/30 02:15:53;;;;;;;3.33;1.17;;;7.70;99.90;;;;;;5037389;28;20174;-90
2023/01/30 02:18:20;;;;;;;6.30;4.27;;;7.70;99.90;;;;;;5037414;28;20217;-89
2023/01/30 02:21:10;;;;;;;7.87;1.33;;;7.70;99.90;;;;;;5020778;28;20216;-88
2023/01/30 02:24:14;;;;;;;2.03;1.70;;;7.60;99.90;;;;;;5052844;28;20221;-87
2023/01/30 02:27:00;;;;;;;0.83;0.83;;;7.60;99.90;;;;;;5053932;28;20209;-90
2023/01/30 02:30:07;;;;;;;0.70;0.70;;;7.60;99.90;;;;;;5053010;28;20350;-89
2023/01/30 02:32:39;;;;;;;1.47;1.37;;;7.60;99.90;;;;;;5053012;28;20222;-88
2023/01/30 02:35:37;;;;;;;3.67;1.77;;;7.60;99.90;;;;;;5070843;28;20237;-89
2023/01/30 02:38:28;;;;;;;3.40;3.00;;;7.60;99.90;;;;;;5052709;28;20669;-89
2023/01/30 02:41:42;;;;;;;2.23;1.90;;;7.50;99.90;;;;;;5070749;28;20248;-89
2023/01/30 02:44:24;;;;;;;1.80;1.70;;;7.50;99.90;;;;;;5031677;28;20241;-88
2023/01/30 02:46:57;;;;;;;0.40;0.40;;;7.40;99.90;;;;;;5053930;28;20209;-89
2023/01/30 02:49:46;;;;;;;1.07;0.97;;;7.50;99.90;;;;;;5053370;28;20173;-88
2023/01/30 02:52:14;;;;;;;0.83;0.83;;;7.60;99.90;;;;;;5053117;28;20173;-88
2023/01/30 02:54:39;;;;;;;0.57;0.57;;;7.60;99.90;;;;;;5036888;28;20669;-91
2023/01/30 02:57:20;;;;;;;2.67;2.13;;;7.60;99.90;;;;;;5019504;28;20236;-87
2023/01/30 02:59:50;;;;;;;9.77;0.57;;;7.50;99.90;;;;;;5052482;28;20225;-89
2023/01/30 03:02:21;;;;;;;3.87;0.73;;;7.40;99.90;;;;;;5072030;28;20313;-89
2023/01/30 03:05:03;;;;;;;0.27;0.27;;;7.30;99.90;;;;;;5053395;28;20233;-89
2023/01/30 03:07:56;;;;;;;0.50;0.50;;;7.30;99.90;;;;;;5054802;28;20213;-91
2023/01/30 03:10:48;;;;;;;1.17;1.07;;;7.40;99.90;;;;;;5057450;28;20411;-90
2023/01/30 03:13:33;;;;;;;1.93;1.13;;;7.40;99.90;;;;;;5056585;28;20166;-88
2023/01/30 03:16:04;;;;;;;0.93;0.93;;;7.40;99.90;;;;;;5056371;28;20212;-87
2023/01/30 03:18:29;;;;;;;2.57;1.27;;;7.30;99.90;;;;;;5079518;28;20213;-88
2023/01/30 03:20:55;;;;;;;4.13;1.47;;;7.30;99.90;;;;;;5025827;28;20237;-89
2023/01/30 03:23:21;;;;;;;0.70;0.67;;;7.30;99.90;;;;;;5041394;28;20755;-89
2023/01/30 03:25:47;;;;;;;1.63;1.53;;;7.30;99.90;;;;;;5024505;28;20231;-87
2023/01/30 03:28:18;;;;;;;2.83;1.73;;;7.20;99.90;;;;;;5068249;28;20177;-91
2023/01/30 03:30:44;;;;;;;2.03;0.67;;;7.30;99.90;;;;;;5078995;28;20149;-90
2023/01/30 03:33:10;;;;;;;3.97;0.60;;;7.30;99.90;;;;;;5057948;28;20217;-89
2023/01/30 03:35:36;;;;;;;0.80;0.80;;;7.30;99.90;;;;;;5057690;28;20233;-92
2023/01/30 03:38:02;;;;;;;22.20;2.00;;;7.20;99.90;;;;;;5029157;28;20209;-86
2023/01/30 03:40:28;;;;;;;1.73;1.60;;;7.20;99.90;;;;;;5075725;28;20335;-86
2023/01/30 03:42:54;;;;;;;1.30;1.23;;;7.10;99.90;;;;;;5058204;28;20181;-91
2023/01/30 03:45:19;;;;;;;2.40;2.30;;;7.00;99.90;;;;;;5040010;28;20221;-91
2023/01/30 03:47:45;;;;;;;2.50;2.40;;;6.90;99.90;;;;;;5039622;28;20371;-88
2023/01/30 03:50:11;;;;;;;10.63;1.07;;;6.90;99.90;;;;;;5024029;28;20268;-88
2023/01/30 03:52:37;;;;;;;1.50;0.77;;;7.00;99.90;;;;;;5038575;28;20365;-87
2023/01/30 03:55:03;;;;;;;11.23;2.43;;;7.10;99.90;;;;;;5023093;28;20213;-89
2023/01/30 03:57:29;;;;;;;0.67;0.67;;;7.10;99.90;;;;;;5059767;28;20237;-87
2023/01/30 03:59:55;;;;;;;13.07;2.33;;;7.10;99.90;;;;;;5061018;28;20268;-90
2023/01/30 04:02:22;;;;;;;1.13;0.60;;;7.10;99.90;;;;;;5023440;28;20229;-90
2023/01/30 04:04:51;;;;;;;0.30;0.30;;;7.00;99.90;;;;;;5038816;28;20283;-88
2023/01/30 04:07:17;;;;;;;3.30;1.27;;;7.00;99.90;;;;;;5038954;28;20174;-91
2023/01/30 04:09:43;;;;;;;0.20;0.20;;;7.00;99.90;;;;;;5056842;28;20200;-91
2023/01/30 04:12:09;;;;;;;0.97;0.50;;;7.00;99.90;;;;;;5020795;28;20249;-91
2023/01/30 04:14:34;;;;;;;2.53;1.97;;;7.00;99.90;;;;;;5019933;28;20226;-89
2023/01/30 04:17:00;;;;;;;2.83;1.07;;;7.10;99.90;;;;;;5052239;28;20206;-89
2023/01/30 04:19:29;;;;;;;1.87;0.57;;;6.90;99.90;;;;;;5017954;28;20232;-89
2023/01/30 04:21:54;;;;;;;2.40;1.37;;;6.90;99.90;;;;;;5019081;28;20257;-89
2023/01/30 04:24:20;;;;;;;1.50;1.47;;;6.90;99.90;;;;;;5050959;28;20301;-89
2023/01/30 04:26:46;;;;;;;0.50;0.50;;;6.80;99.90;;;;;;5033285;28;20237;-89
2023/01/30 04:29:12;;;;;;;1.27;0.73;;;6.80;99.90;;;;;;5033365;28;20217;-88
2023/01/30 04:31:37;;;;;;;2.90;0.90;;;6.90;99.90;;;;;;5049923;28;20221;-88
2023/01/30 04:34:03;;;;;;;0.80;0.80;;;6.90;99.90;;;;;;5017937;28;20305;-90
2023/01/30 04:36:29;;;;;;;0.80;0.70;;;6.90;99.90;;;;;;5033476;28;20229;-88
2023/01/30 04:38:57;;;;;;;0.50;0.50;;;6.80;99.90;;;;;;5049834;28;20224;-90
2023/01/30 04:41:23;;;;;;;0.87;0.87;;;6.80;99.90;;;;;;5033674;28;20222;-89
2023/01/30 04:43:49;;;;;;;4.20;0.73;;;6.80;99.90;;;;;;5034897;28;20782;-90
2023/01/30 04:46:15;;;;;;;0.57;0.57;;;6.90;99.90;;;;;;5052390;28;20174;-90
2023/01/30 04:48:41;;;;;;;1.47;0.47;;;6.90;99.90;;;;;;5051662;28;20174;-91
2023/01/30 04:51:06;;;;;;;2.10;1.13;;;6.90;99.90;;;;;;5033690;28;20225;-89
2023/01/30 04:53:32;;;;;;;0.83;0.83;;;6.90;99.90;;;;;;5050548;28;20573;-91
2023/01/30 04:55:58;;;;;;;0.53;0.53;;;6.90;99.90;;;;;;5034574;28;20279;-89
2023/01/30 04:58:24;;;;;;;1.03;1.03;;;6.90;99.90;;;;;;5034045;28;20182;-91
2023/01/30 05:00:49;;;;;;;5.83;1.53;;;6.90;99.90;;;;;;5017694;28;20264;-89
2023/01/30 05:03:15;;;;;;;2.67;1.03;;;6.80;99.90;;;;;;5034005;28;20294;-89
2023/01/30 05:05:41;;;;;;;0.23;0.23;;;6.80;99.90;;;;;;5033931;28;20795;-90
2023/01/30 05:08:08;;;;;;;0.20;0.20;;;6.80;99.90;;;;;;5033939;28;20213;-88
2023/01/30 05:10:33;;;;;;;5.50;0.93;;;6.70;99.90;;;;;;5033568;28;20217;-89
2023/01/30 05:13:04;;;;;;;0.80;0.33;;;6.70;99.90;;;;;;5050858;28;20643;-89
2023/01/30 05:15:30;;;;;;;2.20;2.10;;;6.70;99.90;;;;;;5049579;28;20284;-89
2023/01/30 05:17:56;;;;;;;6.33;0.77;;;6.60;99.90;;;;;;5033468;28;20675;-88
2023/01/30 05:20:22;;;;;;;1.20;1.07;;;6.60;99.90;;;;;;5016748;28;20301;-88
2023/01/30 05:22:48;;;;;;;6.10;1.90;;;6.60;99.90;;;;;;5033648;28;20613;-89
2023/01/30 05:25:13;;;;;;;0.30;0.30;;;6.60;99.90;;;;;;5016978;28;20182;-89
2023/01/30 05:27:39;;;;;;;0.83;0.83;;;6.70;99.90;;;;;;5033952;28;20194;-90
2023/01/30 05:30:06;;;;;;;1.57;1.47;;;6.70;99.90;;;;;;5049567;28;20593;-87
2023/01/30 05:32:31;;;;;;;3.10;0.60;;;6.70;99.90;;;;;;5048979;28;20218;-90
2023/01/30 05:34:57;;;;;;;14.80;2.80;;;6.70;99.90;;;;;;5049319;28;20627;-90
2023/01/30 05:37:23;;;;;;;1.13;0.57;;;6.70;99.90;;;;;;5033309;28;20442;-87
2023/01/30 05:39:49;;;;;;;0.23;0.23;;;6.70;99.90;;;;;;5017436;28;20752;-90
2023/01/30 05:42:15;;;;;;;5.23;1.00;;;6.80;99.90;;;;;;5050133;28;20220;-89
2023/01/30 05:44:41;;;;;;;1.80;1.70;;;6.80;99.90;;;;;;5049547;28;20667;-90
2023/01/30 05:47:06;;;;;;;0.40;0.40;;;6.90;99.90;;;;;;5051555;28;20651;-90
2023/01/30 05:49:32;;;;;;;6.10;0.57;;;7.00;99.90;;;;;;5033950;28;20217;-92
2023/01/30 05:51:58;;;;;;;3.30;0.73;;;7.00;99.90;;;;;;5034670;28;20182;-90
2023/01/30 05:54:24;;;;;;;0.40;0.40;;;7.00;99.90;;;;;;5050937;28;20241;-92
2023/01/30 05:56:50;;;;;;;1.67;1.43;;;7.00;99.90;;;;;;5032881;28;20218;-92
2023/01/30 05:59:17;;;;;;;1.20;1.10;;;7.00;99.90;;;;;;5053347;28;20233;-90
2023/01/30 06:01:43;;;;;;;1.17;1.17;;;7.00;99.90;;;;;;5036487;28;20221;-92
2023/01/30 06:04:09;;;;;;;1.27;1.17;;;7.00;99.90;;;;;;5036529;28;20234;-91
2023/01/30 06:06:35;;;;;;;3.33;1.53;;;6.90;99.90;;;;;;5036213;28;20751;-89
2023/01/30 06:09:01;;;;;;;2.47;0.97;;;6.90;99.90;;;;;;5053582;28;20212;-88
2023/01/30 06:11:27;;;;;;;2.30;0.87;;;7.00;99.90;;;;;;5052682;28;20221;-90
2023/01/30 06:13:52;;;;;;;0.70;0.70;;;6.90;99.90;;;;;;5070091;28;20686;-90
2023/01/30 06:16:19;;;;;;;0.20;0.20;;;6.90;99.90;;;;;;5053952;28;20185;-91
2023/01/30 06:18:48;;;;;;;1.23;1.00;;;6.90;99.90;;;;;;5054322;28;20192;-90
2023/01/30 06:21:14;;;;;;;0.80;0.80;;;6.90;99.90;;;;;;5038617;28;20205;-90
2023/01/30 06:23:41;;;;;;;5.87;0.93;;;6.90;99.90;;;;;;5020182;28;20217;-92
2023/01/30 06:26:07;;;;;;;2.07;0.63;;;6.80;99.90;;;;;;5070631;28;20208;-93
2023/01/30 06:28:34;;;;;;;0.50;0.50;;;6.80;99.90;;;;;;5052673;28;20220;-89
2023/01/30 06:30:59;;;;;;;1.40;1.13;;;6.80;99.90;;;;;;5036952;28;20185;-90
2023/01/30 06:33:25;;;;;;;1.90;1.23;;;6.70;99.90;;;;;;5036237;28;20213;-91
2023/01/30 06:35:51;;;;;;;1.37;0.87;;;6.80;99.90;;;;;;5052613;28;20241;-91
2023/01/30 06:38:18;;;;;;;1.07;1.07;;;6.80;99.90;;;;;;5052553;28;20284;-90
2023/01/30 06:40:46;;;;;;;1.03;1.03;;;6.80;99.90;;;;;;5070436;28;20634;-90
2023/01/30 06:43:12;;;;;;;0.70;0.70;;;6.80;99.90;;;;;;5055766;28;20579;-90
2023/01/30 06:45:38;;;;;;;12.77;0.83;;;6.80;99.90;;;;;;5075576;28;20182;-90
2023/01/30 06:48:04;;;;;;;0.20;0.20;;;6.80;99.90;;;;;;5041477;28;20208;-91
2023/01/30 06:50:31;;;;;;;1.03;0.77;;;6.80;99.90;;;;;;5041536;28;20224;-93
2023/01/30 06:52:57;;;;;;;2.43;2.33;;;6.80;99.90;;;;;;5057264;28;20209;-91
2023/01/30 06:55:25;;;;;;;0.47;0.47;;;6.80;99.90;;;;;;5041080;28;20351;-89
2023/01/30 06:58:04;;;;;;;1.03;1.03;;;6.80;99.90;;;;;;5058363;28;20201;-91
2023/01/30 07:00:30;;;;;;;1.30;0.60;;;6.80;99.90;;;;;;5074302;28;20248;-90
2023/01/30 07:02:56;;;;;;;1.30;1.27;;;6.80;99.90;;;;;;5040015;28;20225;-90
2023/01/30 07:05:22;;;;;;;1.43;1.30;;;6.80;99.90;;;;;;5040902;28;20221;-91
2023/01/30 07:07:47;;;;;;;2.00;0.90;;;6.70;99.90;;;;;;5040062;28;20735;-93
2023/01/30 07:10:13;;;;;;;3.50;1.27;;;6.80;99.90;;;;;;5039616;28;20547;-94
2023/01/30 07:12:39;;;;;;;0.30;0.30;;;6.80;99.90;;;;;;5043106;28;20185;-92
2023/01/30 07:15:08;;;;;;;2.67;0.60;;;6.90;99.90;;;;;;5025549;28;20249;-90
2023/01/30 07:17:34;;;;;;;0.90;0.40;;;7.00;99.90;;;;;;5060664;28;20213;-90
2023/01/30 07:20:00;;;;;;;1.40;1.23;;;7.00;99.90;;;;;;5041438;28;20659;-89
2023/01/30 07:22:26;;;;;;;10.93;1.07;;;7.00;99.90;;;;;;5032805;28;20181;-92
2023/01/30 07:24:51;;;;;;;2.53;0.60;;;7.00;99.90;;;;;;5060195;28;20178;-90
2023/01/30 07:27:17;;;;;;;1.80;1.80;;;7.00;99.90;;;;;;5040967;28;20217;-90
2023/01/30 07:29:43;;;;;;;4.27;0.53;;;7.00;99.90;;;;;;5039704;28;20343;-86
2023/01/30 07:32:14;;;;;;;6.93;0.80;;;7.00;99.90;;;;;;5022701;28;20237;-90
2023/01/30 07:34:40;;;;;;;1.73;1.63;;;7.10;99.90;;;;;;5054501;28;20300;-90
2023/01/30 07:37:06;;;;;;;1.17;1.07;;;7.10;99.90;;;;;;5055004;28;20260;-88
2023/01/30 07:39:34;;;;;;;0.80;0.80;;;7.10;99.90;;;;;;5055619;28;20168;-89
2023/01/30 07:42:00;;;;;;;1.10;0.87;;;7.00;99.90;;;;;;5055853;28;20209;-90
2023/01/30 07:44:26;;;;;;;16.30;1.47;;;7.00;99.90;;;;;;5055515;28;20367;-89
2023/01/30 07:46:52;;;;;;;2.47;0.40;;;7.00;99.90;;;;;;5055336;28;20662;-90
2023/01/30 07:49:18;;;;;;;0.50;0.50;;;6.90;99.90;;;;;;5022433;28;20205;-89
2023/01/30 07:51:44;;;;;;;0.80;0.80;;;6.90;99.90;;;;;;5055821;28;20224;-91
2023/01/30 07:54:10;;;;;;;2.43;0.70;;;7.00;99.90;;;;;;5054692;28;20229;-91
2023/01/30 07:56:36;;;;;;;1.93;1.50;;;7.00;99.90;;;;;;5055987;28;20620;-89
2023/01/30 07:59:02;;;;;;;1.73;1.23;;;7.00;99.90;;;;;;5056514;28;20229;-90
2023/01/30 08:01:28;;;;;;;1.37;0.67;;;7.00;99.90;;;;;;5073415;28;20228;-90
2023/01/30 08:03:53;;;;;;;0.20;0.20;;;7.00;99.90;;;;;;5022705;28;20182;-89
2023/01/30 08:06:19;;;;;;;2.07;0.90;;;6.90;99.90;;;;;;5038245;28;20278;-91
2023/01/30 08:08:45;;;;;;;10.00;1.57;;;7.00;99.90;;;;;;5072877;28;20217;-88
2023/01/30 08:11:11;;;;;;;0.97;0.87;;;7.10;99.90;;;;;;5038439;28;20308;-90
2023/01/30 08:13:36;;;;;;;2.63;0.67;;;7.10;99.90;;;;;;5072780;28;20252;-91
2023/01/30 08:16:05;;;;;;;5.87;0.70;;;7.10;99.90;;;;;;5039592;28;20181;-89
2023/01/30 08:18:33;;;;;;;0.80;0.80;;;7.20;99.90;;;;;;5055619;28;20201;-89
2023/01/30 08:21:00;;;;;;;4.30;1.80;;;7.20;99.90;;;;;;5072359;28;20216;-88
2023/01/30 08:23:26;;;;;;;2.93;2.83;;;7.20;99.90;;;;;;5073049;28;20220;-87
2023/01/30 08:25:57;;;;;;;2.10;0.97;;;7.20;99.90;;;;;;5073565;28;20248;-90
2023/01/30 08:28:23;;;;;;;7.33;0.40;;;7.20;99.90;;;;;;5059958;28;20177;-89
2023/01/30 08:30:51;;;;;;;5.73;0.63;;;7.20;99.90;;;;;;5060066;28;20234;-90
2023/01/30 08:33:20;;;;;;;0.50;0.43;;;7.20;99.90;;;;;;5060551;28;20205;-92
2023/01/30 08:35:46;;;;;;;2.13;1.40;;;7.20;99.90;;;;;;5060096;28;20255;-88
2023/01/30 08:38:13;;;;;;;5.50;1.60;;;7.20;99.90;;;;;;5078183;28;20274;-91
2023/01/30 08:40:39;;;;;;;1.80;1.13;;;7.20;99.90;;;;;;5059416;28;20209;-91
2023/01/30 08:43:05;;;;;;;13.23;2.17;;;7.20;99.90;;;;;;5061531;28;20180;-92
2023/01/30 08:45:31;;;;;;;6.17;1.33;;;7.20;99.90;;;;;;5060427;28;20650;-86
2023/01/30 08:48:05;;;;;;;3.70;0.70;;;7.20;99.90;;;;;;5057213;28;20244;-91
2023/01/30 08:50:32;;;;;;;3.13;2.33;;;7.30;99.90;;;;;;5079516;28;20684;-93
2023/01/30 08:53:05;;;;;;;3.00;1.13;;;7.30;99.90;;;;;;5062891;28;20217;-88
2023/01/30 08:55:31;;;;;;;2.00;0.80;;;7.30;99.90;;;;;;5059341;28;20451;-90
2023/01/30 08:57:57;;;;;;;2.47;1.27;;;7.40;99.90;;;;;;5062015;28;20184;-93
2023/01/30 09:00:23;;;;;;;2.73;0.70;;;7.40;99.90;;;;;;5058953;28;20237;-91
2023/01/30 09:02:53;;;;;;;1.70;1.27;;;7.50;99.90;;;;;;5041528;28;20392;-90
2023/01/30 09:05:19;;;;;;;0.37;0.37;;;7.60;99.90;;;;;;5042068;28;20213;-87
2023/01/30 09:07:44;;;;;;;0.60;0.60;;;7.60;99.90;;;;;;5055255;28;20420;-91
2023/01/30 09:10:10;;;;;;;0.43;0.43;;;7.50;99.90;;;;;;5055572;28;20245;-89
2023/01/30 09:12:36;;;;;;;15.33;2.03;;;7.60;99.90;;;;;;5054208;28;20262;-89
2023/01/30 09:15:02;;;;;;;4.33;0.93;;;7.60;99.90;;;;;;5053791;28;20579;-91
2023/01/30 09:17:28;;;;;;;9.43;2.83;;;7.40;99.90;;;;;;5053056;28;20217;-89
2023/01/30 09:19:54;;;;;;;1.73;0.90;;;7.40;99.90;;;;;;5053677;28;20213;-91
2023/01/30 09:22:20;;;;;;;1.50;1.40;;;7.40;99.90;;;;;;5077563;28;20227;-91
2023/01/30 09:24:45;;;;;;;2.63;1.40;;;7.40;99.90;;;;;;5050000;28;20173;-90
2023/01/30 09:27:11;;;;;;;0.67;0.60;;;7.40;99.90;;;;;;5069465;28;20213;-91
2023/01/30 09:29:37;;;;;;;2.93;0.60;;;7.40;99.90;;;;;;5036479;28;20235;-91
2023/01/30 09:32:03;;;;;;;2.73;2.53;;;7.40;99.90;;;;;;5035823;28;20460;-90
2023/01/30 09:34:29;;;;;;;9.70;3.00;;;7.50;99.90;;;;;;5052755;28;20697;-90
2023/01/30 09:36:55;;;;;;;3.10;1.97;;;7.50;99.90;;;;;;5036218;28;20201;-92
2023/01/30 09:39:21;;;;;;;3.50;0.73;;;7.60;99.90;;;;;;5070297;28;20217;-91
2023/01/30 09:42:16;;;;;;;0.30;0.20;;;7.70;99.90;;;;;;5070540;28;20893;-91
2023/01/30 09:45:12;;;;;;;6.87;1.53;;;7.70;99.90;;;;;;5016672;28;20237;-91
2023/01/30 09:47:57;;;;;;;1.70;0.57;;;7.80;99.90;;;;;;5052573;28;20686;-90
2023/01/30 09:51:07;;;;;;;4.70;1.30;;;7.80;99.90;;;;;;5053038;28;20280;-90
2023/01/30 09:53:41;;;;;;;3.23;1.27;;;7.90;99.90;;;;;;5057058;28;20270;-92
2023/01/30 09:56:06;;;;;;;2.10;0.90;;;8.00;99.90;;;;;;5071302;28;20237;-92
2023/01/30 09:58:46;;;;;;;0.77;0.63;;;7.90;99.90;;;;;;5037211;28;20237;-89
2023/01/30 10:01:36;;;;;;;1.50;0.70;;;8.00;99.90;;;;;;5070564;28;20303;-92
2023/01/30 10:04:12;;;;;;;2.03;1.93;;;8.20;99.90;;;;;;5002539;28;20189;-91
2023/01/30 10:06:53;;;;;;;4.00;0.97;;;8.10;99.90;;;;;;5052280;28;20551;-91
2023/01/30 10:09:34;;;;;;;1.93;1.73;;;8.10;99.90;;;;;;5052056;28;20213;-92
2023/01/30 10:12:49;;;;;;;0.50;0.50;;;7.10;99.90;;;;;;5052093;28;20212;-91
2023/01/30 10:15:30;;;;;;;2.00;0.63;;;5.60;99.90;;;;;;5051873;28;20591;-91
2023/01/30 10:18:06;;;;;;;2.13;1.23;;;5.40;99.90;;;;;;5050927;28;20229;-91
2023/01/30 10:20:47;;;;;;;0.83;0.80;;;5.40;99.90;;;;;;5052207;28;20250;-88
2023/01/30 10:23:33;;;;;;;4.57;0.63;;;5.60;99.90;;;;;;5053428;28;20677;-91
2023/01/30 10:26:08;;;;;;;1.43;0.90;;;5.60;99.90;;;;;;5052924;28;20217;-90
2023/01/30 10:28:59;;;;;;;0.20;0.20;;;6.00;99.90;;;;;;5052622;28;20254;-88
2023/01/30 10:31:32;;;;;;;3.93;0.90;;;6.10;99.90;;;;;;5051435;28;20181;-90
2023/01/30 10:34:09;;;;;;;0.43;0.43;;;6.30;99.90;;;;;;5052290;28;20566;-90
2023/01/30 10:36:50;;;;;;;0.30;0.30;;;6.40;99.90;;;;;;5052136;28;20196;-88
2023/01/30 10:39:27;;;;;;;0.30;0.30;;;6.50;99.90;;;;;;5051510;28;20217;-89
2023/01/30 10:42:12;;;;;;;0.57;0.43;;;6.60;99.90;;;;;;5051500;28;20262;-89
2023/01/30 10:44:41;;;;;;;4.27;0.67;;;6.60;99.90;;;;;;5069531;28;20681;-89
2023/01/30 10:47:29;;;;;;;2.73;0.87;;;6.60;99.90;;;;;;5051993;28;20213;-89
2023/01/30 10:50:08;;;;;;;0.27;0.27;;;6.70;99.90;;;;;;5052145;28;20210;-91
2023/01/30 10:52:50;;;;;;;0.60;0.50;;;6.80;99.90;;;;;;5052863;28;20209;-88
2023/01/30 10:55:26;;;;;;;0.50;0.50;;;6.90;99.90;;;;;;5070034;28;20217;-89
2023/01/30 10:58:05;;;;;;;1.60;0.63;;;7.00;99.90;;;;;;5070044;28;20280;-90
2023/01/30 11:00:40;;;;;;;2.53;0.80;;;7.20;99.90;;;;;;5048701;28;20329;-91
2023/01/30 11:03:15;;;;;;;0.20;0.20;;;7.40;99.90;;;;;;5048461;28;20213;-89
2023/01/30 11:05:49;;;;;;;2.20;1.80;;;7.60;99.90;;;;;;5048094;28;20251;-93
2023/01/30 11:08:24;;;;;;;0.50;0.50;;;7.40;99.90;;;;;;5049544;28;20240;-91
2023/01/30 11:10:51;;;;;;;5.20;0.50;;;6.30;99.90;;;;;;5050206;28;20221;-93
2023/01/30 11:13:25;;;;;;;0.40;0.40;;;6.30;99.90;;;;;;5050333;28;20686;-93
2023/01/30 11:15:54;;;;;;;1.03;1.03;;;6.40;99.90;;;;;;5049596;28;20198;-92
2023/01/30 11:18:21;;;;;;;2.00;1.70;;;6.50;99.90;;;;;;5051626;28;20222;-92
2023/01/30 11:21:02;;;;;;;0.37;0.37;;;6.60;99.90;;;;;;5050030;28;20341;-93
2023/01/30 11:23:41;;;;;;;0.30;0.30;;;6.70;99.90;;;;;;5050766;28;20288;-92
2023/01/30 11:26:31;;;;;;;0.40;0.40;;;6.60;99.90;;;;;;5051441;28;20260;-88
2023/01/30 11:28:57;;;;;;;0.53;0.53;;;6.60;99.90;;;;;;5050561;28;20249;-90
2023/01/30 11:31:28;;;;;;;0.10;0.10;;;6.80;99.90;;;;;;5037078;28;20524;-92
2023/01/30 11:34:04;;;;;;;0.23;0.23;;;6.90;99.90;;;;;;5054699;28;20237;-95
2023/01/30 11:36:32;;;;;;;0.37;0.30;;;7.00;99.90;;;;;;5053683;28;20221;-91
2023/01/30 11:39:01;;;;;;;0.50;0.50;;;7.10;99.90;;;;;;5062946;28;20240;-91
2023/01/30 11:41:28;;;;;;;0.47;0.47;;;7.10;99.90;;;;;;5071061;28;20445;-89
2023/01/30 11:44:04;;;;;;;0.50;0.50;;;7.20;99.90;;;;;;5061766;28;20288;-91
2023/01/30 11:46:33;;;;;;;0.80;0.47;;;7.20;99.90;;;;;;5036918;28;20324;-91
2023/01/30 11:49:12;;;;;;;3.23;0.43;;;7.30;99.90;;;;;;5056630;28;20627;-92
2023/01/30 11:51:39;;;;;;;2.00;1.03;;;7.30;99.90;;;;;;5058075;28;20190;-90
2023/01/30 11:54:12;;;;;;;0.40;0.40;;;7.30;99.90;;;;;;5039669;28;20236;-92
2023/01/30 11:56:41;;;;;;;5.33;0.67;;;7.30;99.90;;;;;;5056680;28;20224;-89
2023/01/30 11:59:24;;;;;;;1.27;0.40;;;7.40;99.90;;;;;;5056779;28;20214;-93
2023/01/30 12:01:51;;;;;;;0.67;0.60;;;7.50;99.90;;;;;;5057620;28;20219;-91
2023/01/30 12:04:19;;;;;;;0.20;0.20;;;7.50;99.90;;;;;;5060878;28;20191;-91
2023/01/30 12:07:05;;;;;;;0.30;0.30;;;7.60;99.90;;;;;;5029143;28;20203;-92
2023/01/30 12:09:36;;;;;;;1.03;0.97;;;7.60;99.90;;;;;;5058852;28;20235;-92
2023/01/30 12:12:22;;;;;;;0.73;0.73;;;7.70;99.90;;;;;;5057156;28;20213;-91
2023/01/30 12:14:50;;;;;;;0.77;0.43;;;7.60;99.90;;;;;;5058267;28;20233;-91
2023/01/30 12:17:25;;;;;;;0.57;0.40;;;7.60;99.90;;;;;;5060213;28;20217;-92
2023/01/30 12:20:13;;;;;;;1.33;0.47;;;7.70;99.90;;;;;;5060438;28;20268;-89
2023/01/30 12:23:04;;;;;;;0.40;0.40;;;7.70;99.90;;;;;;5058888;28;20213;-93
2023/01/30 12:25:39;;;;;;;0.73;0.73;;;7.70;99.90;;;;;;5059469;28;20223;-91
2023/01/30 12:28:19;;;;;;;1.30;0.40;;;7.70;99.90;;;;;;5064511;28;20161;-93
2023/01/30 12:30:55;;;;;;;2.60;1.43;;;7.70;99.90;;;;;;5060527;28;20208;-93
2023/01/30 12:33:25;;;;;;;1.00;1.00;;;7.80;99.90;;;;;;5060393;28;20377;-89
2023/01/30 12:36:13;;;;;;;0.67;0.63;;;7.80;99.90;;;;;;5078280;28;20256;-91
2023/01/30 12:39:27;;;;;;;3.00;1.17;;;7.90;99.90;;;;;;5077671;28;20217;-92
2023/01/30 12:42:32;;;;;;;1.37;1.37;;;7.90;99.90;;;;;;5077362;28;20213;-93
2023/01/30 12:45:22;;;;;;;5.23;1.03;;;8.00;99.90;;;;;;5060860;28;20387;-94
2023/01/30 12:48:04;;;;;;;1.13;0.90;;;7.90;99.90;;;;;;5063025;28;20217;-92
2023/01/30 12:51:04;;;;;;;1.50;0.97;;;8.00;99.90;;;;;;5062609;28;20216;-94
2023/01/30 12:53:39;;;;;;;1.27;1.27;;;8.00;99.90;;;;;;5062857;28;20331;-94
2023/01/30 12:56:19;;;;;;;2.73;1.60;;;8.00;99.90;;;;;;5063542;28;20221;-92
2023/01/30 12:58:58;;;;;;;1.37;0.67;;;8.10;99.90;;;;;;5062226;28;20220;-93
2023/01/30 13:01:28;;;;;;;3.40;0.97;;;8.20;99.90;;;;;;5077026;28;20181;-93
2023/01/30 13:04:37;;;;;;;6.07;2.63;;;8.20;99.90;;;;;;5062527;28;20185;-91
2023/01/30 13:07:48;;;;;;;6.13;0.70;;;8.20;99.90;;;;;;4975042;28;20220;-92
2023/01/30 13:10:34;;;;;;;1.00;0.87;;;8.30;99.90;;;;;;5024395;28;20185;-92
2023/01/30 13:13:13;;;;;;;11.90;1.17;;;8.20;99.90;;;;;;5062277;28;20185;-93
2023/01/30 13:15:51;;;;;;;3.03;0.73;;;8.30;99.90;;;;;;5062314;28;20224;-90
2023/01/30 13:18:29;;;;;;;3.87;2.17;;;8.30;99.90;;;;;;5063013;28;20274;-91
2023/01/30 13:21:17;;;;;;;0.80;0.77;;;8.30;99.90;;;;;;5063544;28;20217;-93
2023/01/30 13:23:52;;;;;;;19.17;2.47;;;8.20;99.90;;;;;;5081087;28;20289;-93
2023/01/30 13:26:23;;;;;;;0.70;0.40;;;8.30;99.90;;;;;;5061883;28;20749;-91
2023/01/30 13:28:58;;;;;;;0.20;0.20;;;8.20;99.90;;;;;;5060985;28;20218;-92